Time;durP1;ratioP1;P1;durP2;ratioP2;P2;SDS_P1;SDS_P2;PMS_P1;PMS_P2;Temp;Humidity;BMP_temperature;BMP_pressure;BME280_temperature;BME280_humidity;BME280_pressure;Samples;Min_cycle;Max_cycle;Signal;HPM_P1;HPM_P2
2020/12/19 00:00:19;;;;;;;1.10;0.28;;;8.70;88.70;;;;;;4031564;28;20092;-88
2020/12/19 00:02:47;;;;;;;2.00;0.20;;;8.70;88.60;;;;;;4075933;35;20090;-89
2020/12/19 00:05:13;;;;;;;0.63;0.20;;;8.70;88.70;;;;;;4076849;35;20043;-88
2020/12/19 00:07:39;;;;;;;0.63;0.35;;;8.70;88.70;;;;;;4094338;27;20102;-89
2020/12/19 00:10:06;;;;;;;1.48;0.40;;;8.70;88.60;;;;;;4086314;35;20392;-88
2020/12/19 00:12:33;;;;;;;0.32;0.13;;;8.70;88.60;;;;;;4075694;35;20376;-89
2020/12/19 00:15:00;;;;;;;1.40;0.20;;;8.80;88.70;;;;;;4092693;27;20264;-89
2020/12/19 00:17:26;;;;;;;3.03;0.40;;;8.80;88.60;;;;;;4069656;28;20075;-89
2020/12/19 00:19:58;;;;;;;0.30;0.20;;;8.80;88.60;;;;;;4072558;35;20087;-87
2020/12/19 00:22:32;;;;;;;0.65;0.20;;;8.80;88.60;;;;;;4060204;35;20060;-88
2020/12/19 00:24:58;;;;;;;0.00;0.00;;;8.80;88.50;;;;;;4061286;27;20193;-88
2020/12/19 00:27:25;;;;;;;0.00;0.00;;;8.80;88.50;;;;;;4061010;35;20063;-89
2020/12/19 00:29:51;;;;;;;0.05;0.00;;;8.80;88.50;;;;;;4075340;35;20045;-87
2020/12/19 00:32:21;;;;;;;0.05;0.00;;;8.80;88.50;;;;;;4073326;35;20112;-89
2020/12/19 00:34:53;;;;;;;0.47;0.20;;;8.90;88.60;;;;;;4059571;35;20095;-90
2020/12/19 00:37:19;;;;;;;0.70;0.10;;;8.90;88.50;;;;;;4053846;28;20131;-90
2020/12/19 00:39:46;;;;;;;0.73;0.30;;;8.90;88.50;;;;;;4070331;27;20091;-88
2020/12/19 00:42:18;;;;;;;0.20;0.00;;;8.90;88.30;;;;;;4073007;27;20076;-89
2020/12/19 00:44:51;;;;;;;1.08;0.75;;;9.00;88.40;;;;;;4079446;27;20080;-90
2020/12/19 00:47:21;;;;;;;0.00;0.00;;;9.00;88.40;;;;;;4072700;27;20068;-90
2020/12/19 00:49:48;;;;;;;0.63;0.55;;;9.00;88.30;;;;;;4077026;34;20051;-88
2020/12/19 00:52:15;;;;;;;3.95;0.57;;;9.00;88.30;;;;;;4091098;27;20537;-90
2020/12/19 00:54:42;;;;;;;0.77;0.20;;;9.00;88.40;;;;;;4086790;35;20047;-87
2020/12/19 00:57:16;;;;;;;0.20;0.00;;;9.00;88.40;;;;;;4081465;35;20079;-88
2020/12/19 01:00:08;;;;;;;0.00;0.00;;;9.00;89.20;;;;;;4089977;35;20082;-89
2020/12/19 01:02:38;;;;;;;0.68;0.35;;;9.00;88.40;;;;;;4092103;28;20071;-89
2020/12/19 01:05:16;;;;;;;0.55;0.35;;;9.00;88.40;;;;;;4090106;27;20071;-90
2020/12/19 01:07:49;;;;;;;0.32;0.10;;;9.00;88.40;;;;;;4085218;27;20063;-88
2020/12/19 01:10:18;;;;;;;1.85;0.17;;;9.10;88.40;;;;;;4101099;27;20095;-90
2020/12/19 01:12:48;;;;;;;0.28;0.28;;;9.10;88.40;;;;;;4083689;27;20075;-89
2020/12/19 01:15:22;;;;;;;2.97;0.80;;;9.10;88.30;;;;;;4085138;28;20071;-89
2020/12/19 01:17:51;;;;;;;0.00;0.00;;;9.20;88.30;;;;;;4074929;35;20064;-89
2020/12/19 01:20:23;;;;;;;0.60;0.25;;;9.20;88.20;;;;;;4090000;27;20068;-89
2020/12/19 01:22:53;;;;;;;1.15;0.40;;;9.20;88.20;;;;;;4066469;27;20562;-88
2020/12/19 01:25:22;;;;;;;0.57;0.35;;;9.20;88.10;;;;;;4074987;27;20454;-88
2020/12/19 01:27:48;;;;;;;0.00;0.00;;;9.20;88.00;;;;;;4046283;35;20324;-89
2020/12/19 01:30:14;;;;;;;1.52;0.40;;;9.30;88.00;;;;;;4060627;28;20068;-89
2020/12/19 01:32:50;;;;;;;0.15;0.10;;;9.30;88.00;;;;;;4070851;35;20270;-89
2020/12/19 01:35:22;;;;;;;1.27;0.20;;;9.30;88.00;;;;;;4054838;28;20053;-88
2020/12/19 01:37:48;;;;;;;0.47;0.00;;;9.30;87.90;;;;;;4086342;34;20079;-89
2020/12/19 01:40:14;;;;;;;0.93;0.10;;;9.40;87.90;;;;;;4084593;27;20137;-91
2020/12/19 01:42:41;;;;;;;1.27;0.32;;;9.40;87.80;;;;;;4075602;35;20399;-89
2020/12/19 01:45:14;;;;;;;0.10;0.00;;;9.40;87.70;;;;;;4082014;27;20066;-89
2020/12/19 01:47:48;;;;;;;0.05;0.00;;;9.40;87.70;;;;;;4098536;35;20086;-89
2020/12/19 01:50:20;;;;;;;0.88;0.20;;;9.50;87.70;;;;;;4079504;35;20052;-89
2020/12/19 01:52:50;;;;;;;0.03;0.00;;;9.50;87.70;;;;;;4068589;27;20071;-88
2020/12/19 01:55:22;;;;;;;0.22;0.05;;;9.60;87.60;;;;;;4079259;27;20107;-90
2020/12/19 01:57:53;;;;;;;0.00;0.00;;;9.60;87.60;;;;;;4076057;35;20384;-87
2020/12/19 02:00:21;;;;;;;0.60;0.50;;;9.60;87.60;;;;;;4089951;27;20052;-89
2020/12/19 02:02:47;;;;;;;0.05;0.03;;;9.60;87.50;;;;;;4098482;27;20426;-88
2020/12/19 02:05:17;;;;;;;3.13;0.55;;;9.60;87.50;;;;;;4105159;27;20086;-89
2020/12/19 02:07:50;;;;;;;0.68;0.40;;;9.70;87.60;;;;;;4086563;27;20485;-89
2020/12/19 02:10:22;;;;;;;0.65;0.03;;;9.70;87.60;;;;;;4081230;27;20563;-89
2020/12/19 02:12:49;;;;;;;0.05;0.03;;;9.70;87.50;;;;;;4065515;35;20072;-90
2020/12/19 02:15:15;;;;;;;0.73;0.10;;;9.70;87.40;;;;;;4081305;27;20040;-88
2020/12/19 02:17:42;;;;;;;0.35;0.20;;;9.80;87.40;;;;;;4087483;35;20363;-89
2020/12/19 02:20:10;;;;;;;0.85;0.35;;;9.80;87.30;;;;;;4123910;27;20070;-90
2020/12/19 02:22:36;;;;;;;0.10;0.00;;;9.90;87.30;;;;;;4065968;35;20079;-89
2020/12/19 02:25:02;;;;;;;0.10;0.00;;;9.90;87.20;;;;;;4086687;35;20114;-89
2020/12/19 02:27:30;;;;;;;3.22;0.40;;;9.90;87.20;;;;;;4064320;35;20086;-90
2020/12/19 02:29:57;;;;;;;0.63;0.15;;;9.90;87.20;;;;;;4065240;35;20072;-88
2020/12/19 02:32:30;;;;;;;5.50;0.68;;;9.90;87.20;;;;;;4101294;27;20079;-89
2020/12/19 02:34:57;;;;;;;0.10;0.00;;;10.00;87.20;;;;;;4092123;27;20093;-88
2020/12/19 02:37:23;;;;;;;1.35;0.05;;;10.00;87.20;;;;;;4086037;35;20094;-90
2020/12/19 02:39:50;;;;;;;0.32;0.15;;;9.90;87.20;;;;;;4075343;35;20064;-89
2020/12/19 02:42:17;;;;;;;1.00;0.47;;;10.00;87.20;;;;;;4093629;27;20086;-89
2020/12/19 02:44:49;;;;;;;0.10;0.10;;;10.00;87.10;;;;;;4075935;27;20082;-89
2020/12/19 02:47:22;;;;;;;1.65;0.28;;;10.00;87.10;;;;;;4075975;28;20099;-88
2020/12/19 02:49:49;;;;;;;0.32;0.00;;;10.00;87.10;;;;;;4064666;35;20083;-88
2020/12/19 02:52:16;;;;;;;0.17;0.10;;;10.00;87.10;;;;;;4076757;27;20087;-89
2020/12/19 02:54:42;;;;;;;0.70;0.35;;;10.10;87.20;;;;;;4110029;27;20047;-87
2020/12/19 02:57:09;;;;;;;0.08;0.03;;;10.10;87.10;;;;;;4062959;35;20067;-89
2020/12/19 02:59:35;;;;;;;0.32;0.10;;;10.10;87.10;;;;;;4109986;27;20453;-89
2020/12/19 03:02:20;;;;;;;;;;;;;;;;;;;;;
2020/12/19 03:05:42;;;;;;;0.57;0.35;;;10.10;87.20;;;;;;4123377;27;20039;-88
2020/12/19 03:08:15;;;;;;;0.30;0.00;;;10.10;87.10;;;;;;4092750;34;20100;-89
2020/12/19 03:10:45;;;;;;;1.00;0.38;;;10.10;87.10;;;;;;4098229;35;20472;-89
2020/12/19 03:13:12;;;;;;;0.25;0.25;;;10.20;87.20;;;;;;4133879;27;20071;-90
2020/12/19 03:15:53;;;;;;;0.88;0.03;;;10.20;87.20;;;;;;4086483;27;20044;-88
2020/12/19 03:18:20;;;;;;;1.60;0.20;;;10.20;87.10;;;;;;4096618;27;20046;-88
2020/12/19 03:20:46;;;;;;;0.08;0.00;;;10.20;87.00;;;;;;4100241;27;20224;-89
2020/12/19 03:23:19;;;;;;;0.08;0.00;;;10.30;87.00;;;;;;4087430;35;20391;-90
2020/12/19 03:25:50;;;;;;;0.30;0.20;;;10.30;86.90;;;;;;4080894;34;20324;-88
2020/12/19 03:28:17;;;;;;;0.10;0.00;;;10.40;86.80;;;;;;4089032;35;20059;-89
2020/12/19 03:30:50;;;;;;;0.03;0.00;;;10.40;86.70;;;;;;4094606;27;20039;-90
2020/12/19 03:33:18;;;;;;;1.17;0.30;;;10.50;86.60;;;;;;4102948;34;20040;-89
2020/12/19 03:36:00;;;;;;;;;;;;;;;;;;;;;
2020/12/19 03:38:30;;;;;;;0.20;0.20;;;10.60;86.30;;;;;;4124416;35;19952;-88
2020/12/19 03:40:56;;;;;;;0.40;0.00;;;10.70;86.10;;;;;;4127698;27;20474;-88
2020/12/19 03:43:23;;;;;;;0.17;0.00;;;10.70;85.90;;;;;;4114227;27;20051;-89
2020/12/19 03:46:04;;;;;;;0.45;0.03;;;10.80;86.00;;;;;;4127892;27;20424;-89
2020/12/19 03:48:30;;;;;;;;;;;10.80;86.00;;;;;;4118724;27;20093;-89
2020/12/19 03:51:07;;;;;;;0.00;0.00;;;10.80;85.90;;;;;;4124609;27;19994;-90
2020/12/19 03:53:33;;;;;;;0.17;0.03;;;10.90;85.80;;;;;;4118357;27;20067;-88
2020/12/19 03:56:02;;;;;;;0.22;0.17;;;10.90;85.70;;;;;;4111976;35;20071;-88
2020/12/19 03:58:28;;;;;;;0.22;0.10;;;10.90;85.70;;;;;;4122018;27;20497;-88
2020/12/19 04:00:56;;;;;;;1.67;0.28;;;11.00;85.80;;;;;;4119996;27;20074;-89
2020/12/19 04:03:22;;;;;;;0.08;0.00;;;11.00;85.80;;;;;;4098741;27;20086;-89
2020/12/19 04:05:54;;;;;;;0.00;0.00;;;11.00;85.80;;;;;;4098324;35;20360;-90
2020/12/19 04:08:27;;;;;;;0.00;0.00;;;11.00;85.90;;;;;;4087850;35;20133;-90
2020/12/19 04:11:25;;;;;;;0.10;0.00;;;11.00;85.80;;;;;;4086722;35;20067;-89
2020/12/19 04:13:53;;;;;;;0.40;0.25;;;11.10;85.80;;;;;;4075222;35;20062;-90
2020/12/19 04:16:20;;;;;;;0.00;0.00;;;11.10;85.70;;;;;;4111160;27;20530;-89
2020/12/19 04:18:46;;;;;;;0.47;0.15;;;11.10;85.70;;;;;;4085185;35;20114;-90
2020/12/19 04:21:24;;;;;;;1.38;0.30;;;11.10;85.60;;;;;;4114323;27;20078;-90
2020/12/19 04:23:57;;;;;;;0.22;0.03;;;11.20;85.70;;;;;;4094884;27;20118;-89
2020/12/19 04:26:25;;;;;;;0.20;0.10;;;11.20;85.70;;;;;;4095482;35;20066;-89
2020/12/19 04:28:56;;;;;;;0.15;0.10;;;11.20;85.70;;;;;;4102808;27;20064;-88
2020/12/19 04:31:25;;;;;;;0.00;0.00;;;11.30;85.70;;;;;;4095941;27;20060;-88
2020/12/19 04:33:54;;;;;;;0.32;0.20;;;11.30;85.60;;;;;;4105993;34;20066;-88
2020/12/19 04:36:25;;;;;;;1.45;0.20;;;11.30;85.50;;;;;;4135739;34;20563;-88
2020/12/19 04:39:17;;;;;;;3.95;0.25;;;11.30;85.60;;;;;;4113232;34;20078;-89
2020/12/19 04:41:57;;;;;;;0.00;0.00;;;11.40;85.50;;;;;;4120047;27;20437;-91
2020/12/19 04:44:27;;;;;;;0.00;0.00;;;11.40;85.40;;;;;;4140148;27;20071;-88
2020/12/19 04:46:59;;;;;;;0.22;0.22;;;11.40;85.40;;;;;;4135682;27;20077;-89
2020/12/19 04:49:26;;;;;;;0.08;0.00;;;11.50;85.40;;;;;;4126281;34;20073;-90
2020/12/19 04:54:58;;;;;;;0.00;0.00;;;11.50;85.40;;;;;;4118893;27;20062;-88
2020/12/19 04:57:26;;;;;;;0.20;0.00;;;11.50;85.40;;;;;;4120592;27;20458;-87
2020/12/19 04:59:53;;;;;;;0.08;0.00;;;11.50;85.40;;;;;;4126393;27;20054;-87
2020/12/19 05:02:29;;;;;;;0.10;0.00;;;11.50;85.50;;;;;;4120714;27;20560;-89
2020/12/19 05:05:03;;;;;;;0.52;0.30;;;11.50;85.50;;;;;;4120191;27;20072;-88
2020/12/19 05:07:32;;;;;;;0.22;0.00;;;11.50;85.50;;;;;;4109376;34;20384;-87
2020/12/19 05:10:01;;;;;;;0.00;0.00;;;11.50;85.50;;;;;;4117301;27;20086;-87
2020/12/19 05:12:31;;;;;;;0.20;0.10;;;11.50;85.50;;;;;;4120439;35;20085;-87
2020/12/19 05:14:59;;;;;;;0.00;0.00;;;11.50;85.50;;;;;;4119674;34;20096;-88
2020/12/19 05:17:26;;;;;;;0.32;0.13;;;11.60;85.60;;;;;;4134178;27;20220;-89
2020/12/19 05:19:53;;;;;;;0.08;0.00;;;11.50;85.50;;;;;;4109286;34;20089;-88
2020/12/19 05:22:35;;;;;;;0.00;0.00;;;11.60;85.60;;;;;;4108036;34;20078;-88
2020/12/19 05:25:07;;;;;;;0.10;0.00;;;11.60;85.60;;;;;;4115111;27;20113;-88
2020/12/19 05:27:34;;;;;;;0.35;0.10;;;11.50;85.60;;;;;;4111948;27;20074;-87
2020/12/19 05:30:06;;;;;;;0.70;0.20;;;11.60;85.60;;;;;;4084263;34;20075;-87
2020/12/19 05:32:55;;;;;;;0.22;0.20;;;11.60;85.60;;;;;;4088377;28;20096;-89
2020/12/19 05:35:27;;;;;;;0.40;0.13;;;11.60;85.70;;;;;;4103762;27;20076;-89
2020/12/19 05:38:22;;;;;;;0.40;0.15;;;11.60;85.70;;;;;;4093353;35;20074;-88
2020/12/19 05:40:49;;;;;;;0.00;0.00;;;11.60;85.80;;;;;;4105906;27;20115;-89
2020/12/19 05:43:15;;;;;;;0.73;0.20;;;11.50;85.90;;;;;;4113788;34;20075;-87
2020/12/19 05:45:41;;;;;;;0.00;0.00;;;11.50;86.10;;;;;;4120545;27;20492;-88
2020/12/19 05:48:34;;;;;;;0.03;0.00;;;11.50;86.20;;;;;;4107499;35;20482;-88
2020/12/19 05:51:00;;;;;;;0.00;0.00;;;11.40;86.40;;;;;;4120340;27;20035;-87
2020/12/19 05:53:31;;;;;;;0.10;0.10;;;11.40;86.50;;;;;;4104040;27;20043;-87
2020/12/19 05:56:05;;;;;;;0.10;0.00;;;11.30;86.70;;;;;;4102786;27;20102;-87
2020/12/19 05:58:31;;;;;;;0.00;0.00;;;11.30;86.90;;;;;;4110246;27;20083;-87
2020/12/19 06:00:58;;;;;;;0.00;0.00;;;11.20;87.00;;;;;;4110184;27;20070;-87
2020/12/19 06:03:30;;;;;;;0.98;0.38;;;11.20;87.10;;;;;;4108027;27;20082;-88
2020/12/19 06:05:59;;;;;;;0.08;0.00;;;11.20;87.20;;;;;;4119766;27;20086;-87
2020/12/19 06:08:37;;;;;;;0.05;0.00;;;11.20;87.40;;;;;;4127055;27;20082;-87
2020/12/19 06:11:09;;;;;;;0.10;0.10;;;11.20;88.20;;;;;;4125860;27;20078;-88
2020/12/19 06:13:35;;;;;;;;;;;11.10;87.40;;;;;;4135252;27;20085;-87
2020/12/19 06:16:11;;;;;;;0.10;0.00;;;11.10;87.40;;;;;;4135352;27;19994;-88
2020/12/19 06:22:14;;;;;;;0.05;0.00;;;11.10;87.50;;;;;;4139145;27;20050;-87
2020/12/19 06:24:47;;;;;;;0.10;0.00;;;11.10;87.50;;;;;;4097207;35;20078;-88
2020/12/19 06:27:32;;;;;;;0.00;0.00;;;11.10;87.60;;;;;;4108182;35;20071;-88
2020/12/19 06:29:59;;;;;;;0.20;0.17;;;11.10;87.60;;;;;;4137161;27;20075;-87
2020/12/19 06:32:32;;;;;;;0.13;0.00;;;11.10;87.60;;;;;;4146537;27;20066;-87
2020/12/19 06:35:29;;;;;;;0.00;0.00;;;11.10;87.60;;;;;;4140237;27;20050;-86
2020/12/19 06:38:04;;;;;;;0.28;0.13;;;11.10;87.70;;;;;;4107500;27;20082;-88
2020/12/19 06:40:50;;;;;;;0.17;0.10;;;11.10;87.70;;;;;;4104653;34;20099;-87
2020/12/19 06:43:22;;;;;;;0.00;0.00;;;11.10;87.70;;;;;;4083648;35;20044;-88
2020/12/19 06:45:56;;;;;;;0.63;0.03;;;11.10;87.80;;;;;;4070528;27;20072;-88
2020/12/19 06:48:33;;;;;;;0.10;0.00;;;11.10;87.80;;;;;;4114151;27;20066;-87
2020/12/19 06:51:08;;;;;;;1.10;0.10;;;11.10;87.80;;;;;;4126457;27;20071;-87
2020/12/19 06:53:35;;;;;;;0.00;0.00;;;11.10;87.80;;;;;;4136425;27;20043;-87
2020/12/19 06:56:33;;;;;;;0.35;0.17;;;11.20;87.90;;;;;;4128340;34;20160;-88
2020/12/19 06:59:05;;;;;;;0.10;0.10;;;11.20;87.90;;;;;;4136852;34;20528;-87
2020/12/19 07:01:31;;;;;;;0.10;0.00;;;11.10;87.80;;;;;;4150498;27;20428;-88
2020/12/19 07:03:58;;;;;;;0.15;0.10;;;11.20;87.90;;;;;;4135035;34;20082;-88
2020/12/19 07:06:24;;;;;;;0.65;0.22;;;11.20;87.90;;;;;;4134821;27;20097;-88
2020/12/19 07:08:50;;;;;;;5.38;0.35;;;11.20;88.10;;;;;;4124606;34;20466;-88
2020/12/19 07:13:59;;;;;;;0.00;0.00;;;11.20;88.10;;;;;;4122164;27;20047;-87
2020/12/19 07:16:45;;;;;;;6.80;0.13;;;11.20;88.10;;;;;;4110921;27;20220;-88
2020/12/19 07:19:29;;;;;;;0.63;0.15;;;11.20;88.20;;;;;;4109265;34;20349;-87
2020/12/19 07:21:57;;;;;;;0.43;0.10;;;11.10;88.20;;;;;;4119772;27;20424;-88
2020/12/19 07:24:29;;;;;;;0.00;0.00;;;11.20;88.30;;;;;;4130021;27;20420;-88
2020/12/19 07:27:18;;;;;;;0.20;0.00;;;11.10;88.30;;;;;;4102526;27;20075;-87
2020/12/19 07:29:49;;;;;;;0.00;0.00;;;11.10;88.30;;;;;;4109103;35;20389;-87
2020/12/19 07:32:16;;;;;;;0.47;0.10;;;11.20;88.40;;;;;;4107243;27;20047;-88
2020/12/19 07:34:43;;;;;;;0.47;0.10;;;11.10;88.40;;;;;;4123201;27;20044;-88
2020/12/19 07:37:09;;;;;;;0.10;0.10;;;11.20;88.40;;;;;;4118944;27;20529;-88
2020/12/19 07:39:39;;;;;;;0.00;0.00;;;11.20;88.40;;;;;;4119226;35;20423;-87
2020/12/19 07:42:08;;;;;;;1.65;0.10;;;11.20;88.50;;;;;;4110090;27;20076;-88
2020/12/19 07:44:37;;;;;;;0.00;0.00;;;11.10;88.40;;;;;;4118477;34;20087;-88
2020/12/19 07:47:11;;;;;;;0.52;0.38;;;11.20;88.50;;;;;;4109570;27;20082;-89
2020/12/19 07:49:46;;;;;;;0.05;0.00;;;11.20;88.50;;;;;;4094750;35;20087;-87
2020/12/19 07:52:31;;;;;;;0.00;0.00;;;11.20;88.50;;;;;;4107414;35;20067;-88
2020/12/19 07:55:11;;;;;;;0.10;0.10;;;11.20;88.50;;;;;;4118723;34;20035;-88
2020/12/19 07:57:38;;;;;;;0.10;0.00;;;11.20;88.50;;;;;;4124475;27;20078;-89
2020/12/19 08:00:13;;;;;;;0.93;0.60;;;11.20;88.50;;;;;;4106288;35;20046;-88
2020/12/19 08:02:52;;;;;;;0.00;0.00;;;11.20;88.50;;;;;;4130242;27;20071;-88
2020/12/19 08:05:23;;;;;;;0.00;0.00;;;11.20;88.60;;;;;;4096489;35;20086;-88
2020/12/19 08:07:53;;;;;;;0.00;0.00;;;11.20;88.50;;;;;;4108483;27;20086;-87
2020/12/19 08:10:22;;;;;;;0.00;0.00;;;11.30;88.50;;;;;;4096251;27;20079;-89
2020/12/19 08:12:48;;;;;;;0.00;0.00;;;11.20;88.50;;;;;;4111057;27;20051;-87
2020/12/19 08:15:23;;;;;;;0.00;0.00;;;11.30;88.50;;;;;;4097076;27;20090;-87
2020/12/19 08:17:58;;;;;;;0.00;0.00;;;11.30;88.50;;;;;;4106944;27;20078;-87
2020/12/19 08:21:02;;;;;;;0.20;0.00;;;11.30;88.50;;;;;;4095797;35;20071;-87
2020/12/19 08:23:28;;;;;;;0.95;0.32;;;11.30;88.50;;;;;;4128473;27;20044;-88
2020/12/19 08:25:58;;;;;;;0.25;0.10;;;11.30;88.40;;;;;;4100653;27;20074;-88
2020/12/19 08:28:24;;;;;;;8.48;0.20;;;11.40;88.50;;;;;;4124283;27;20079;-89
2020/12/19 08:30:50;;;;;;;0.22;0.03;;;11.40;88.40;;;;;;4113112;27;20469;-89
2020/12/19 08:33:17;;;;;;;0.00;0.00;;;11.40;88.40;;;;;;4109062;34;20074;-87
2020/12/19 08:35:47;;;;;;;0.00;0.00;;;11.40;88.30;;;;;;4096593;35;20095;-88
2020/12/19 08:38:26;;;;;;;0.00;0.00;;;11.50;88.40;;;;;;4109274;27;20062;-88
2020/12/19 08:41:02;;;;;;;5.10;0.13;;;11.50;88.30;;;;;;4094693;35;20055;-87
2020/12/19 08:43:40;;;;;;;0.00;0.00;;;11.50;88.20;;;;;;4108625;34;20047;-87
2020/12/19 08:46:12;;;;;;;0.00;0.00;;;11.50;88.10;;;;;;4113185;27;20587;-89
2020/12/19 08:48:39;;;;;;;0.00;0.00;;;11.60;88.10;;;;;;4106085;27;20036;-88
2020/12/19 08:51:35;;;;;;;0.47;0.10;;;11.60;88.10;;;;;;4134838;27;20324;-88
2020/12/19 08:54:11;;;;;;;0.00;0.00;;;11.60;88.10;;;;;;4105769;27;20408;-88
2020/12/19 08:57:18;;;;;;;0.10;0.10;;;11.60;88.10;;;;;;4124344;27;20074;-88
2020/12/19 08:59:53;;;;;;;1.55;0.05;;;11.70;88.10;;;;;;4119395;34;20058;-87
2020/12/19 09:02:19;;;;;;;0.20;0.00;;;11.70;88.10;;;;;;4136524;27;20090;-88
2020/12/19 09:04:49;;;;;;;0.10;0.10;;;11.70;88.10;;;;;;4105631;34;20039;-88
2020/12/19 09:07:15;;;;;;;0.00;0.00;;;11.70;88.10;;;;;;4132434;27;21120;-87
2020/12/19 09:09:41;;;;;;;0.00;0.00;;;11.70;88.10;;;;;;4120600;27;20077;-90
2020/12/19 09:12:12;;;;;;;0.00;0.00;;;11.70;88.10;;;;;;4111471;27;20097;-88
2020/12/19 09:14:38;;;;;;;0.00;0.00;;;11.70;88.10;;;;;;4100893;27;20133;-88
2020/12/19 09:17:11;;;;;;;1.08;0.15;;;11.70;88.10;;;;;;4152088;27;20075;-89
2020/12/19 09:19:37;;;;;;;0.00;0.00;;;11.80;88.20;;;;;;4129604;27;20043;-89
2020/12/19 09:22:04;;;;;;;0.10;0.00;;;11.80;88.20;;;;;;4108348;34;20091;-88
2020/12/19 09:24:40;;;;;;;0.00;0.00;;;11.80;88.10;;;;;;4119429;34;20040;-88
2020/12/19 09:27:07;;;;;;;0.00;0.00;;;11.90;88.10;;;;;;4106436;27;20099;-88
2020/12/19 09:29:37;;;;;;;1.45;0.17;;;12.00;87.90;;;;;;4074120;27;20080;-88
2020/12/19 09:32:03;;;;;;;1.40;0.17;;;12.10;87.60;;;;;;4095969;27;20063;-88
2020/12/19 09:34:30;;;;;;;0.00;0.00;;;12.20;87.50;;;;;;4115939;27;20091;-88
2020/12/19 09:36:59;;;;;;;0.20;0.00;;;12.20;87.30;;;;;;4090870;27;20134;-88
2020/12/19 09:39:26;;;;;;;0.00;0.00;;;12.20;87.30;;;;;;4073822;27;20076;-89
2020/12/19 09:41:52;;;;;;;0.00;0.00;;;12.30;87.30;;;;;;4081701;35;20442;-88
2020/12/19 09:44:26;;;;;;;6.10;0.88;;;12.30;87.20;;;;;;4076894;34;20102;-88
2020/12/19 09:46:52;;;;;;;0.55;0.25;;;12.40;87.20;;;;;;4162048;27;20111;-88
2020/12/19 09:49:22;;;;;;;0.85;0.35;;;12.50;87.00;;;;;;4113879;27;20082;-88
2020/12/19 09:54:31;;;;;;;1.75;0.22;;;12.60;86.90;;;;;;4140636;27;20063;-89
2020/12/19 09:56:58;;;;;;;0.08;0.00;;;12.70;86.70;;;;;;4115948;27;20085;-88
2020/12/19 09:59:28;;;;;;;0.00;0.00;;;12.90;86.30;;;;;;4114266;27;20059;-88
2020/12/19 10:02:22;;;;;;;5.30;0.65;;;13.00;86.00;;;;;;4133368;27;20059;-88
2020/12/19 10:07:56;;;;;;;;;;;13.20;85.60;;;;;;4134935;27;19991;-87
2020/12/19 10:10:22;;;;;;;2.13;0.13;;;13.30;85.50;;;;;;4135122;34;19970;-87
2020/12/19 10:12:57;;;;;;;8.85;0.25;;;13.50;85.20;;;;;;4119596;34;20087;-87
2020/12/19 10:15:27;;;;;;;0.20;0.00;;;13.70;84.80;;;;;;4120987;27;20134;-89
2020/12/19 10:17:53;;;;;;;0.22;0.00;;;14.00;84.30;;;;;;4111161;27;20082;-87
2020/12/19 10:20:26;;;;;;;0.00;0.00;;;14.20;83.70;;;;;;4127826;34;20071;-88
2020/12/19 10:22:58;;;;;;;0.05;0.05;;;14.40;83.30;;;;;;4096064;27;20074;-88
2020/12/19 10:25:25;;;;;;;0.40;0.30;;;14.50;83.30;;;;;;4108906;27;20376;-88
2020/12/19 10:27:52;;;;;;;0.00;0.00;;;14.60;83.10;;;;;;4105560;34;20070;-88
2020/12/19 10:30:19;;;;;;;1.75;0.20;;;14.60;83.00;;;;;;4120293;27;20089;-89
2020/12/19 10:32:55;;;;;;;0.00;0.00;;;14.50;83.40;;;;;;4119971;27;20501;-88
2020/12/19 10:35:21;;;;;;;0.10;0.00;;;14.40;84.10;;;;;;4098920;27;20153;-88
2020/12/19 10:37:50;;;;;;;0.25;0.10;;;14.40;84.30;;;;;;4101936;27;20086;-89
2020/12/19 10:40:20;;;;;;;4.38;0.47;;;14.40;84.30;;;;;;4109519;27;20074;-88
2020/12/19 10:42:47;;;;;;;0.47;0.08;;;14.50;84.10;;;;;;4115078;34;20086;-89
2020/12/19 10:45:13;;;;;;;0.00;0.00;;;14.50;84.00;;;;;;4105788;27;20055;-87
2020/12/19 10:47:40;;;;;;;0.00;0.00;;;14.50;84.20;;;;;;4109652;34;20107;-87
2020/12/19 10:50:18;;;;;;;0.00;0.00;;;14.50;84.50;;;;;;4120091;34;20411;-87
2020/12/19 10:52:48;;;;;;;0.00;0.00;;;14.30;84.80;;;;;;4119073;35;20070;-88
2020/12/19 10:55:14;;;;;;;0.08;0.00;;;14.20;85.10;;;;;;4117378;27;20102;-87
2020/12/19 10:57:41;;;;;;;0.30;0.00;;;14.20;85.40;;;;;;4121746;27;20082;-87
2020/12/19 11:00:13;;;;;;;0.00;0.00;;;14.20;85.60;;;;;;4126490;27;20078;-88
2020/12/19 11:02:39;;;;;;;0.00;0.00;;;14.10;85.60;;;;;;4131339;27;20101;-88
2020/12/19 11:05:18;;;;;;;4.25;0.47;;;14.20;85.60;;;;;;4121094;27;20039;-88
2020/12/19 11:07:47;;;;;;;0.00;0.00;;;14.10;85.50;;;;;;4119690;27;20086;-86
2020/12/19 11:10:13;;;;;;;0.13;0.10;;;14.10;85.60;;;;;;4117402;34;20086;-87
2020/12/19 11:12:40;;;;;;;0.13;0.13;;;14.10;85.70;;;;;;4122353;27;20075;-87
2020/12/19 11:15:06;;;;;;;4.95;0.22;;;14.00;85.80;;;;;;4107770;27;20481;-87
2020/12/19 11:17:39;;;;;;;0.93;0.30;;;14.00;86.00;;;;;;4092729;35;20466;-87
2020/12/19 11:20:11;;;;;;;0.00;0.00;;;14.00;86.10;;;;;;4102305;27;20082;-88
2020/12/19 11:22:40;;;;;;;0.52;0.13;;;13.90;86.10;;;;;;4120602;34;20419;-87
2020/12/19 11:25:09;;;;;;;0.20;0.10;;;13.90;86.20;;;;;;4119232;27;20082;-87
2020/12/19 11:27:36;;;;;;;2.00;0.35;;;13.80;86.30;;;;;;4116823;34;20109;-88
2020/12/19 11:30:02;;;;;;;0.20;0.00;;;13.70;86.60;;;;;;4116752;35;20086;-87
2020/12/19 11:32:28;;;;;;;0.28;0.05;;;13.70;86.80;;;;;;4139855;27;20512;-87
2020/12/19 11:34:55;;;;;;;0.32;0.03;;;13.60;86.90;;;;;;4118125;34;20086;-88
2020/12/19 11:37:25;;;;;;;0.35;0.00;;;13.60;87.00;;;;;;4118780;34;20083;-87
2020/12/19 11:39:53;;;;;;;7.88;0.20;;;13.70;87.00;;;;;;4135539;27;20085;-87
2020/12/19 11:42:22;;;;;;;0.10;0.00;;;13.70;86.80;;;;;;4124694;27;20509;-89
2020/12/19 11:44:57;;;;;;;1.35;0.15;;;13.80;86.60;;;;;;4119481;34;20082;-87
2020/12/19 11:47:26;;;;;;;3.65;0.93;;;13.90;86.30;;;;;;4135127;27;20063;-87
2020/12/19 11:49:53;;;;;;;0.85;0.30;;;14.20;85.90;;;;;;4134986;27;20140;-88
2020/12/19 11:52:25;;;;;;;0.85;0.60;;;14.40;85.30;;;;;;4121127;34;20074;-88
2020/12/19 11:54:58;;;;;;;4.80;0.60;;;14.60;84.60;;;;;;4108299;34;20512;-87
2020/12/19 11:57:25;;;;;;;2.65;0.55;;;14.90;84.10;;;;;;4132270;34;20454;-88
2020/12/19 11:59:51;;;;;;;0.45;0.30;;;15.20;83.30;;;;;;4131473;27;20085;-87
2020/12/19 12:02:18;;;;;;;0.25;0.15;;;15.30;82.80;;;;;;4121145;27;20078;-88
2020/12/19 12:04:59;;;;;;;6.32;0.57;;;15.30;82.90;;;;;;4118286;27;20043;-87
2020/12/19 12:07:25;;;;;;;0.20;0.20;;;15.10;83.30;;;;;;4116603;35;20089;-88
2020/12/19 12:09:52;;;;;;;0.20;0.08;;;14.90;84.00;;;;;;4104879;27;20067;-87
2020/12/19 12:12:18;;;;;;;1.73;0.20;;;14.70;84.60;;;;;;4098616;35;20391;-88
2020/12/19 12:14:45;;;;;;;6.03;1.20;;;14.60;85.20;;;;;;4120140;27;20070;-88
2020/12/19 12:17:11;;;;;;;3.50;0.35;;;14.40;85.60;;;;;;4150589;27;20081;-87
2020/12/19 12:19:38;;;;;;;1.20;0.40;;;14.40;85.90;;;;;;4104253;35;20085;-87
2020/12/19 12:22:10;;;;;;;1.90;0.82;;;14.40;86.00;;;;;;4095522;27;20081;-87
2020/12/19 12:24:45;;;;;;;0.68;0.38;;;14.60;85.40;;;;;;4084162;35;20097;-88
2020/12/19 12:27:15;;;;;;;0.50;0.30;;;14.80;84.70;;;;;;4116560;27;20088;-88
2020/12/19 12:29:41;;;;;;;0.05;0.00;;;14.80;84.50;;;;;;4103101;35;20094;-87
2020/12/19 12:32:08;;;;;;;0.00;0.00;;;14.80;84.50;;;;;;4094886;28;20048;-88
2020/12/19 12:34:40;;;;;;;0.75;0.20;;;14.90;84.40;;;;;;4101443;34;20046;-88
2020/12/19 12:37:06;;;;;;;0.20;0.20;;;15.10;84.00;;;;;;4110606;27;20083;-88
2020/12/19 12:39:33;;;;;;;0.05;0.00;;;15.20;83.50;;;;;;4157025;27;20078;-87
2020/12/19 12:41:59;;;;;;;0.32;0.10;;;15.30;83.30;;;;;;4106584;34;20091;-88
2020/12/19 12:44:25;;;;;;;0.68;0.13;;;15.30;83.00;;;;;;4085126;27;20387;-89
2020/12/19 12:46:58;;;;;;;0.00;0.00;;;15.40;82.90;;;;;;4093506;28;20319;-87
2020/12/19 12:49:30;;;;;;;0.40;0.25;;;15.40;82.60;;;;;;4096349;27;20114;-88
2020/12/19 12:51:57;;;;;;;10.75;0.30;;;15.50;82.50;;;;;;4091824;35;20090;-87
2020/12/19 12:54:35;;;;;;;0.08;0.00;;;15.60;82.40;;;;;;4106047;34;20482;-88
2020/12/19 12:57:08;;;;;;;0.00;0.00;;;15.60;82.30;;;;;;4124902;27;20071;-87
2020/12/19 12:59:38;;;;;;;6.93;0.10;;;15.40;82.50;;;;;;4086753;27;20094;-87
2020/12/19 13:02:06;;;;;;;0.00;0.00;;;15.30;82.90;;;;;;4102331;28;20533;-88
2020/12/19 13:04:33;;;;;;;0.00;0.00;;;15.20;83.10;;;;;;4117412;27;20427;-88
2020/12/19 13:06:59;;;;;;;0.25;0.20;;;15.10;83.50;;;;;;4115404;34;20071;-87
2020/12/19 13:09:26;;;;;;;9.93;0.73;;;14.90;83.70;;;;;;4107676;27;20075;-87
2020/12/19 13:11:59;;;;;;;11.70;0.57;;;14.70;84.00;;;;;;4123216;27;20079;-87
2020/12/19 13:14:28;;;;;;;0.20;0.13;;;14.60;84.40;;;;;;4117986;35;20083;-90
2020/12/19 13:16:57;;;;;;;0.00;0.00;;;14.50;84.80;;;;;;4120380;27;20079;-87
2020/12/19 13:19:23;;;;;;;0.22;0.17;;;14.40;85.00;;;;;;4123190;27;20063;-88
2020/12/19 13:21:59;;;;;;;1.17;0.10;;;14.30;85.10;;;;;;4133047;34;20473;-88
2020/12/19 13:24:26;;;;;;;0.00;0.00;;;14.30;85.10;;;;;;4123740;27;20078;-88
2020/12/19 13:27:03;;;;;;;1.85;0.13;;;14.30;85.00;;;;;;4151230;27;20523;-90